sensor_id;sensor_type;location;lat;lon;timestamp;P1;durP1;ratioP1;P2;durP2;ratioP2
41623;SDS011;27319;50.306;18.926;2022-10-16T00:03:28;23.50;;;12.82;;
41623;SDS011;27319;50.306;18.926;2022-10-16T00:07:29;21.67;;;13.15;;
41623;SDS011;27319;50.306;18.926;2022-10-16T00:11:33;21.35;;;13.45;;
41623;SDS011;27319;50.306;18.926;2022-10-16T00:15:34;16.00;;;12.05;;
41623;SDS011;27319;50.306;18.926;2022-10-16T00:18:39;21.95;;;12.95;;
41623;SDS011;27319;50.306;18.926;2022-10-16T00:22:40;19.83;;;13.48;;
41623;SDS011;27319;50.306;18.926;2022-10-16T00:26:40;22.27;;;12.80;;
41623;SDS011;27319;50.306;18.926;2022-10-16T00:30:41;21.38;;;13.40;;
41623;SDS011;27319;50.306;18.926;2022-10-16T00:34:44;16.55;;;12.60;;
41623;SDS011;27319;50.306;18.926;2022-10-16T00:37:46;18.73;;;12.95;;
41623;SDS011;27319;50.306;18.926;2022-10-16T00:40:47;22.10;;;13.27;;
41623;SDS011;27319;50.306;18.926;2022-10-16T00:43:48;23.48;;;13.43;;
41623;SDS011;27319;50.306;18.926;2022-10-16T00:46:51;20.55;;;12.73;;
41623;SDS011;27319;50.306;18.926;2022-10-16T00:50:51;18.15;;;12.25;;
41623;SDS011;27319;50.306;18.926;2022-10-16T00:54:52;16.83;;;11.73;;
41623;SDS011;27319;50.306;18.926;2022-10-16T00:58:52;21.08;;;14.23;;
41623;SDS011;27319;50.306;18.926;2022-10-16T01:10:54;23.55;;;13.98;;
41623;SDS011;27319;50.306;18.926;2022-10-16T01:14:48;17.63;;;13.50;;
41623;SDS011;27319;50.306;18.926;2022-10-16T01:18:58;17.95;;;11.32;;
41623;SDS011;27319;50.306;18.926;2022-10-16T01:29:25;18.48;;;13.00;;
41623;SDS011;27319;50.306;18.926;2022-10-16T01:32:33;21.80;;;13.73;;
41623;SDS011;27319;50.306;18.926;2022-10-16T01:35:38;18.27;;;13.32;;
41623;SDS011;27319;50.306;18.926;2022-10-16T01:39:39;20.63;;;13.70;;
41623;SDS011;27319;50.306;18.926;2022-10-16T01:43:40;19.13;;;13.90;;
41623;SDS011;27319;50.306;18.926;2022-10-16T01:47:39;19.63;;;14.00;;
41623;SDS011;27319;50.306;18.926;2022-10-16T01:51:40;20.38;;;13.57;;
41623;SDS011;27319;50.306;18.926;2022-10-16T01:55:43;17.48;;;12.93;;
41623;SDS011;27319;50.306;18.926;2022-10-16T01:59:04;20.85;;;13.68;;
41623;SDS011;27319;50.306;18.926;2022-10-16T02:03:02;24.15;;;15.77;;
41623;SDS011;27319;50.306;18.926;2022-10-16T02:07:03;19.55;;;13.82;;
41623;SDS011;27319;50.306;18.926;2022-10-16T02:11:04;20.45;;;15.02;;
41623;SDS011;27319;50.306;18.926;2022-10-16T02:15:05;19.20;;;13.85;;
41623;SDS011;27319;50.306;18.926;2022-10-16T02:19:05;23.38;;;14.77;;
41623;SDS011;27319;50.306;18.926;2022-10-16T02:23:05;24.05;;;15.05;;
41623;SDS011;27319;50.306;18.926;2022-10-16T02:27:14;22.83;;;15.13;;
41623;SDS011;27319;50.306;18.926;2022-10-16T02:31:12;26.55;;;16.95;;
41623;SDS011;27319;50.306;18.926;2022-10-16T02:35:13;23.95;;;16.42;;
41623;SDS011;27319;50.306;18.926;2022-10-16T02:38:17;27.13;;;17.30;;
41623;SDS011;27319;50.306;18.926;2022-10-16T02:41:21;26.48;;;17.98;;
41623;SDS011;27319;50.306;18.926;2022-10-16T02:45:21;26.00;;;17.85;;
41623;SDS011;27319;50.306;18.926;2022-10-16T02:49:21;23.88;;;17.27;;
41623;SDS011;27319;50.306;18.926;2022-10-16T02:53:22;25.27;;;18.42;;
41623;SDS011;27319;50.306;18.926;2022-10-16T02:57:22;24.73;;;17.80;;
41623;SDS011;27319;50.306;18.926;2022-10-16T03:01:23;25.17;;;18.20;;
41623;SDS011;27319;50.306;18.926;2022-10-16T03:05:24;25.80;;;18.77;;
41623;SDS011;27319;50.306;18.926;2022-10-16T03:09:24;28.20;;;18.52;;
41623;SDS011;27319;50.306;18.926;2022-10-16T03:13:25;30.98;;;19.27;;
41623;SDS011;27319;50.306;18.926;2022-10-16T03:17:25;27.95;;;18.52;;
41623;SDS011;27319;50.306;18.926;2022-10-16T03:21:26;28.60;;;18.98;;
41623;SDS011;27319;50.306;18.926;2022-10-16T03:24:27;26.88;;;18.50;;
41623;SDS011;27319;50.306;18.926;2022-10-16T03:27:28;23.90;;;17.40;;
41623;SDS011;27319;50.306;18.926;2022-10-16T03:31:29;23.10;;;16.77;;
41623;SDS011;27319;50.306;18.926;2022-10-16T03:35:29;23.70;;;17.10;;
41623;SDS011;27319;50.306;18.926;2022-10-16T03:38:30;26.98;;;17.20;;
41623;SDS011;27319;50.306;18.926;2022-10-16T03:41:31;25.70;;;17.25;;
41623;SDS011;27319;50.306;18.926;2022-10-16T03:44:31;27.60;;;18.15;;
41623;SDS011;27319;50.306;18.926;2022-10-16T03:47:32;26.75;;;17.38;;
41623;SDS011;27319;50.306;18.926;2022-10-16T03:51:33;22.77;;;16.90;;
41623;SDS011;27319;50.306;18.926;2022-10-16T03:55:34;27.98;;;16.23;;
41623;SDS011;27319;50.306;18.926;2022-10-16T03:59:34;21.17;;;15.38;;
41623;SDS011;27319;50.306;18.926;2022-10-16T04:03:34;24.08;;;15.10;;
41623;SDS011;27319;50.306;18.926;2022-10-16T04:07:35;24.48;;;16.55;;
41623;SDS011;27319;50.306;18.926;2022-10-16T04:11:36;24.85;;;15.73;;
41623;SDS011;27319;50.306;18.926;2022-10-16T04:15:36;21.48;;;14.27;;
41623;SDS011;27319;50.306;18.926;2022-10-16T04:19:37;25.30;;;15.40;;
41623;SDS011;27319;50.306;18.926;2022-10-16T04:23:37;24.55;;;14.82;;
41623;SDS011;27319;50.306;18.926;2022-10-16T04:26:38;22.88;;;15.07;;
41623;SDS011;27319;50.306;18.926;2022-10-16T04:30:39;20.70;;;13.77;;
41623;SDS011;27319;50.306;18.926;2022-10-16T04:34:39;22.63;;;14.90;;
41623;SDS011;27319;50.306;18.926;2022-10-16T04:38:40;28.95;;;16.70;;
41623;SDS011;27319;50.306;18.926;2022-10-16T04:42:41;26.90;;;16.00;;
41623;SDS011;27319;50.306;18.926;2022-10-16T04:46:41;24.02;;;15.15;;
41623;SDS011;27319;50.306;18.926;2022-10-16T04:50:42;22.40;;;15.10;;
41623;SDS011;27319;50.306;18.926;2022-10-16T04:54:42;19.73;;;13.90;;
41623;SDS011;27319;50.306;18.926;2022-10-16T04:58:43;20.77;;;14.75;;
41623;SDS011;27319;50.306;18.926;2022-10-16T05:02:44;27.35;;;16.23;;
41623;SDS011;27319;50.306;18.926;2022-10-16T05:05:45;21.80;;;16.15;;
41623;SDS011;27319;50.306;18.926;2022-10-16T05:09:40;22.17;;;14.80;;
41623;SDS011;27319;50.306;18.926;2022-10-16T05:13:29;21.13;;;13.85;;
41623;SDS011;27319;50.306;18.926;2022-10-16T05:16:29;22.23;;;14.35;;
41623;SDS011;27319;50.306;18.926;2022-10-16T05:20:30;27.23;;;16.27;;
41623;SDS011;27319;50.306;18.926;2022-10-16T05:23:35;27.42;;;17.15;;
41623;SDS011;27319;50.306;18.926;2022-10-16T05:26:36;31.20;;;19.00;;
41623;SDS011;27319;50.306;18.926;2022-10-16T05:30:37;31.33;;;19.20;;
41623;SDS011;27319;50.306;18.926;2022-10-16T05:34:37;34.17;;;21.08;;
41623;SDS011;27319;50.306;18.926;2022-10-16T05:37:38;33.72;;;18.05;;
41623;SDS011;27319;50.306;18.926;2022-10-16T05:40:39;26.83;;;16.85;;
41623;SDS011;27319;50.306;18.926;2022-10-16T05:43:39;30.65;;;17.90;;
41623;SDS011;27319;50.306;18.926;2022-10-16T05:46:40;26.88;;;17.23;;
41623;SDS011;27319;50.306;18.926;2022-10-16T05:50:41;29.50;;;17.92;;
41623;SDS011;27319;50.306;18.926;2022-10-16T05:54:41;27.25;;;17.88;;
41623;SDS011;27319;50.306;18.926;2022-10-16T05:58:42;27.23;;;17.23;;
41623;SDS011;27319;50.306;18.926;2022-10-16T06:02:43;31.42;;;19.65;;
41623;SDS011;27319;50.306;18.926;2022-10-16T06:06:43;34.88;;;17.45;;
41623;SDS011;27319;50.306;18.926;2022-10-16T06:10:44;33.47;;;17.10;;
41623;SDS011;27319;50.306;18.926;2022-10-16T06:14:45;23.80;;;16.45;;
41623;SDS011;27319;50.306;18.926;2022-10-16T06:18:45;25.35;;;16.75;;
41623;SDS011;27319;50.306;18.926;2022-10-16T06:22:45;31.92;;;16.30;;
41623;SDS011;27319;50.306;18.926;2022-10-16T06:26:47;24.90;;;16.30;;
41623;SDS011;27319;50.306;18.926;2022-10-16T06:30:47;25.63;;;15.60;;
41623;SDS011;27319;50.306;18.926;2022-10-16T06:34:48;25.63;;;17.15;;
41623;SDS011;27319;50.306;18.926;2022-10-16T06:38:48;27.38;;;18.55;;
41623;SDS011;27319;50.306;18.926;2022-10-16T06:42:49;32.35;;;17.63;;
41623;SDS011;27319;50.306;18.926;2022-10-16T06:46:49;28.00;;;17.92;;
41623;SDS011;27319;50.306;18.926;2022-10-16T06:54:17;22.42;;;16.00;;
41623;SDS011;27319;50.306;18.926;2022-10-16T06:57:18;24.48;;;16.20;;
41623;SDS011;27319;50.306;18.926;2022-10-16T07:00:19;21.30;;;13.82;;
41623;SDS011;27319;50.306;18.926;2022-10-16T07:03:20;20.15;;;13.10;;
41623;SDS011;27319;50.306;18.926;2022-10-16T07:07:20;22.23;;;13.35;;
41623;SDS011;27319;50.306;18.926;2022-10-16T07:11:21;21.20;;;13.38;;
41623;SDS011;27319;50.306;18.926;2022-10-16T07:15:21;20.33;;;12.77;;
41623;SDS011;27319;50.306;18.926;2022-10-16T07:19:22;18.35;;;12.75;;
41623;SDS011;27319;50.306;18.926;2022-10-16T07:23:22;20.98;;;13.07;;
41623;SDS011;27319;50.306;18.926;2022-10-16T07:26:24;25.05;;;13.93;;
41623;SDS011;27319;50.306;18.926;2022-10-16T07:30:24;23.48;;;14.82;;
41623;SDS011;27319;50.306;18.926;2022-10-16T07:34:24;22.67;;;14.85;;
41623;SDS011;27319;50.306;18.926;2022-10-16T07:38:25;19.50;;;13.50;;
41623;SDS011;27319;50.306;18.926;2022-10-16T07:42:26;24.42;;;12.77;;
41623;SDS011;27319;50.306;18.926;2022-10-16T07:46:26;16.60;;;11.73;;
41623;SDS011;27319;50.306;18.926;2022-10-16T07:49:47;17.98;;;11.77;;
41623;SDS011;27319;50.306;18.926;2022-10-16T07:52:48;16.77;;;11.68;;
41623;SDS011;27319;50.306;18.926;2022-10-16T07:56:48;18.45;;;12.00;;
41623;SDS011;27319;50.306;18.926;2022-10-16T08:00:49;18.95;;;11.18;;
41623;SDS011;27319;50.306;18.926;2022-10-16T08:03:50;14.48;;;11.10;;
41623;SDS011;27319;50.306;18.926;2022-10-16T08:06:52;21.33;;;11.25;;
41623;SDS011;27319;50.306;18.926;2022-10-16T08:09:54;14.23;;;10.30;;
41623;SDS011;27319;50.306;18.926;2022-10-16T08:12:57;16.55;;;9.98;;
41623;SDS011;27319;50.306;18.926;2022-10-16T08:15:58;13.80;;;9.27;;
41623;SDS011;27319;50.306;18.926;2022-10-16T08:19:58;15.18;;;9.95;;
41623;SDS011;27319;50.306;18.926;2022-10-16T08:23:59;18.38;;;11.32;;
41623;SDS011;27319;50.306;18.926;2022-10-16T08:27:59;14.90;;;10.07;;
41623;SDS011;27319;50.306;18.926;2022-10-16T08:32:00;14.98;;;9.35;;
41623;SDS011;27319;50.306;18.926;2022-10-16T08:35:52;12.95;;;8.75;;
41623;SDS011;27319;50.306;18.926;2022-10-16T08:39:52;14.65;;;8.80;;
41623;SDS011;27319;50.306;18.926;2022-10-16T08:47:25;15.13;;;8.30;;
41623;SDS011;27319;50.306;18.926;2022-10-16T08:50:36;12.95;;;9.32;;
41623;SDS011;27319;50.306;18.926;2022-10-16T08:53:41;12.70;;;8.48;;
41623;SDS011;27319;50.306;18.926;2022-10-16T08:57:40;13.05;;;8.85;;
41623;SDS011;27319;50.306;18.926;2022-10-16T09:01:41;13.77;;;8.98;;
41623;SDS011;27319;50.306;18.926;2022-10-16T09:05:44;10.88;;;8.45;;
41623;SDS011;27319;50.306;18.926;2022-10-16T09:24:19;15.57;;;8.45;;
41623;SDS011;27319;50.306;18.926;2022-10-16T09:27:21;12.05;;;8.68;;
41623;SDS011;27319;50.306;18.926;2022-10-16T09:30:23;14.40;;;9.90;;
41623;SDS011;27319;50.306;18.926;2022-10-16T09:37:36;12.77;;;8.80;;
41623;SDS011;27319;50.306;18.926;2022-10-16T09:40:37;16.58;;;9.48;;
41623;SDS011;27319;50.306;18.926;2022-10-16T09:50:57;12.85;;;9.10;;
41623;SDS011;27319;50.306;18.926;2022-10-16T09:55:00;12.40;;;9.18;;
41623;SDS011;27319;50.306;18.926;2022-10-16T09:59:01;19.00;;;9.15;;
41623;SDS011;27319;50.306;18.926;2022-10-16T10:02:12;12.68;;;9.43;;
41623;SDS011;27319;50.306;18.926;2022-10-16T10:09:59;11.50;;;8.88;;
41623;SDS011;27319;50.306;18.926;2022-10-16T10:14:03;11.20;;;8.15;;
41623;SDS011;27319;50.306;18.926;2022-10-16T10:17:47;13.50;;;8.23;;
41623;SDS011;27319;50.306;18.926;2022-10-16T10:21:55;15.23;;;8.13;;
41623;SDS011;27319;50.306;18.926;2022-10-16T10:30:38;9.73;;;7.30;;
41623;SDS011;27319;50.306;18.926;2022-10-16T10:34:01;15.68;;;8.10;;
41623;SDS011;27319;50.306;18.926;2022-10-16T10:45:38;11.25;;;7.22;;
41623;SDS011;27319;50.306;18.926;2022-10-16T11:05:45;13.00;;;8.68;;
41623;SDS011;27319;50.306;18.926;2022-10-16T11:09:19;15.82;;;8.52;;
41623;SDS011;27319;50.306;18.926;2022-10-16T11:13:23;14.02;;;7.18;;
41623;SDS011;27319;50.306;18.926;2022-10-16T11:21:10;15.60;;;8.73;;
41623;SDS011;27319;50.306;18.926;2022-10-16T11:24:16;15.38;;;9.38;;
41623;SDS011;27319;50.306;18.926;2022-10-16T11:27:21;18.20;;;9.60;;
41623;SDS011;27319;50.306;18.926;2022-10-16T11:31:19;12.53;;;8.97;;
41623;SDS011;27319;50.306;18.926;2022-10-16T11:35:41;16.88;;;10.00;;
41623;SDS011;27319;50.306;18.926;2022-10-16T11:39:39;16.67;;;9.48;;
41623;SDS011;27319;50.306;18.926;2022-10-16T11:43:45;12.10;;;8.98;;
41623;SDS011;27319;50.306;18.926;2022-10-16T11:47:34;15.05;;;11.02;;
41623;SDS011;27319;50.306;18.926;2022-10-16T11:51:42;14.23;;;8.63;;
41623;SDS011;27319;50.306;18.926;2022-10-16T11:55:21;14.43;;;9.48;;
41623;SDS011;27319;50.306;18.926;2022-10-16T12:03:22;12.80;;;9.13;;
41623;SDS011;27319;50.306;18.926;2022-10-16T12:07:05;12.15;;;8.32;;
41623;SDS011;27319;50.306;18.926;2022-10-16T12:11:09;17.17;;;8.88;;
41623;SDS011;27319;50.306;18.926;2022-10-16T12:17:48;16.92;;;10.77;;
41623;SDS011;27319;50.306;18.926;2022-10-16T12:21:48;14.95;;;9.75;;
41623;SDS011;27319;50.306;18.926;2022-10-16T12:24:52;11.55;;;8.32;;
41623;SDS011;27319;50.306;18.926;2022-10-16T12:27:56;14.77;;;8.57;;
41623;SDS011;27319;50.306;18.926;2022-10-16T12:34:05;11.75;;;8.15;;
41623;SDS011;27319;50.306;18.926;2022-10-16T12:40:58;14.23;;;8.63;;
41623;SDS011;27319;50.306;18.926;2022-10-16T12:45:25;14.23;;;8.50;;
41623;SDS011;27319;50.306;18.926;2022-10-16T12:48:28;13.00;;;8.32;;
41623;SDS011;27319;50.306;18.926;2022-10-16T12:52:36;15.02;;;8.50;;
41623;SDS011;27319;50.306;18.926;2022-10-16T13:08:25;13.65;;;8.63;;
41623;SDS011;27319;50.306;18.926;2022-10-16T13:31:00;14.70;;;9.18;;
41623;SDS011;27319;50.306;18.926;2022-10-16T13:35:00;10.65;;;8.23;;
41623;SDS011;27319;50.306;18.926;2022-10-16T13:38:12;12.43;;;8.45;;
41623;SDS011;27319;50.306;18.926;2022-10-16T13:41:30;11.98;;;7.90;;
41623;SDS011;27319;50.306;18.926;2022-10-16T13:45:20;12.75;;;7.88;;
41623;SDS011;27319;50.306;18.926;2022-10-16T13:49:20;11.88;;;7.72;;
41623;SDS011;27319;50.306;18.926;2022-10-16T13:53:21;8.82;;;7.07;;
41623;SDS011;27319;50.306;18.926;2022-10-16T13:57:22;9.52;;;7.13;;
41623;SDS011;27319;50.306;18.926;2022-10-16T14:01:23;13.18;;;8.25;;
41623;SDS011;27319;50.306;18.926;2022-10-16T14:05:23;9.65;;;7.68;;
41623;SDS011;27319;50.306;18.926;2022-10-16T14:09:27;8.73;;;7.55;;
41623;SDS011;27319;50.306;18.926;2022-10-16T14:17:22;15.75;;;8.65;;
41623;SDS011;27319;50.306;18.926;2022-10-16T14:21:17;10.25;;;8.38;;
41623;SDS011;27319;50.306;18.926;2022-10-16T14:29:17;11.52;;;8.02;;
41623;SDS011;27319;50.306;18.926;2022-10-16T14:32:23;12.55;;;8.45;;
41623;SDS011;27319;50.306;18.926;2022-10-16T14:35:25;14.65;;;10.00;;
41623;SDS011;27319;50.306;18.926;2022-10-16T14:38:34;14.38;;;9.57;;
41623;SDS011;27319;50.306;18.926;2022-10-16T14:41:47;14.20;;;9.55;;
41623;SDS011;27319;50.306;18.926;2022-10-16T14:45:50;16.02;;;10.48;;
41623;SDS011;27319;50.306;18.926;2022-10-16T14:49:47;17.48;;;8.75;;
41623;SDS011;27319;50.306;18.926;2022-10-16T14:53:49;14.18;;;8.65;;
41623;SDS011;27319;50.306;18.926;2022-10-16T14:57:48;17.52;;;9.40;;
41623;SDS011;27319;50.306;18.926;2022-10-16T15:01:55;14.07;;;10.15;;
41623;SDS011;27319;50.306;18.926;2022-10-16T15:05:38;15.32;;;11.23;;
41623;SDS011;27319;50.306;18.926;2022-10-16T15:08:55;15.10;;;10.18;;
41623;SDS011;27319;50.306;18.926;2022-10-16T15:11:55;15.32;;;9.77;;
41623;SDS011;27319;50.306;18.926;2022-10-16T15:15:56;15.55;;;9.98;;
41623;SDS011;27319;50.306;18.926;2022-10-16T15:19:57;14.07;;;10.45;;
41623;SDS011;27319;50.306;18.926;2022-10-16T15:23:58;19.73;;;10.82;;
41623;SDS011;27319;50.306;18.926;2022-10-16T15:27:00;15.65;;;11.30;;
41623;SDS011;27319;50.306;18.926;2022-10-16T15:30:01;19.55;;;11.70;;
41623;SDS011;27319;50.306;18.926;2022-10-16T15:33:02;16.35;;;10.85;;
41623;SDS011;27319;50.306;18.926;2022-10-16T15:36:30;15.68;;;10.88;;
41623;SDS011;27319;50.306;18.926;2022-10-16T15:40:26;18.02;;;11.32;;
41623;SDS011;27319;50.306;18.926;2022-10-16T15:44:27;19.25;;;11.27;;
41623;SDS011;27319;50.306;18.926;2022-10-16T15:48:28;18.75;;;11.80;;
41623;SDS011;27319;50.306;18.926;2022-10-16T15:52:28;19.50;;;11.70;;
41623;SDS011;27319;50.306;18.926;2022-10-16T15:56:29;17.80;;;11.98;;
41623;SDS011;27319;50.306;18.926;2022-10-16T16:00:29;17.67;;;12.13;;
41623;SDS011;27319;50.306;18.926;2022-10-16T16:04:39;18.88;;;12.00;;
41623;SDS011;27319;50.306;18.926;2022-10-16T16:07:40;18.42;;;11.18;;
41623;SDS011;27319;50.306;18.926;2022-10-16T16:11:41;17.98;;;11.32;;
41623;SDS011;27319;50.306;18.926;2022-10-16T16:15:41;16.75;;;11.40;;
41623;SDS011;27319;50.306;18.926;2022-10-16T16:19:42;22.17;;;13.13;;
41623;SDS011;27319;50.306;18.926;2022-10-16T16:23:42;22.77;;;12.73;;
41623;SDS011;27319;50.306;18.926;2022-10-16T16:27:43;17.67;;;13.60;;
41623;SDS011;27319;50.306;18.926;2022-10-16T16:31:44;26.50;;;17.77;;
41623;SDS011;27319;50.306;18.926;2022-10-16T16:35:44;32.95;;;19.55;;
41623;SDS011;27319;50.306;18.926;2022-10-16T16:39:45;36.90;;;20.42;;
41623;SDS011;27319;50.306;18.926;2022-10-16T16:43:46;33.85;;;19.95;;
41623;SDS011;27319;50.306;18.926;2022-10-16T16:46:51;31.60;;;21.40;;
41623;SDS011;27319;50.306;18.926;2022-10-16T16:49:53;32.20;;;20.65;;
41623;SDS011;27319;50.306;18.926;2022-10-16T16:52:54;29.67;;;20.63;;
41623;SDS011;27319;50.306;18.926;2022-10-16T16:55:54;35.75;;;20.38;;
41623;SDS011;27319;50.306;18.926;2022-10-16T16:58:56;35.42;;;21.80;;
41623;SDS011;27319;50.306;18.926;2022-10-16T17:01:57;36.10;;;24.05;;
41623;SDS011;27319;50.306;18.926;2022-10-16T17:04:58;33.75;;;21.70;;
41623;SDS011;27319;50.306;18.926;2022-10-16T17:07:59;36.70;;;22.20;;
41623;SDS011;27319;50.306;18.926;2022-10-16T17:11:00;31.38;;;21.50;;
41623;SDS011;27319;50.306;18.926;2022-10-16T17:14:01;32.92;;;20.95;;
41623;SDS011;27319;50.306;18.926;2022-10-16T17:17:03;33.03;;;22.17;;
41623;SDS011;27319;50.306;18.926;2022-10-16T17:20:06;28.42;;;19.88;;
41623;SDS011;27319;50.306;18.926;2022-10-16T17:24:06;34.78;;;21.33;;
41623;SDS011;27319;50.306;18.926;2022-10-16T17:28:07;37.30;;;21.70;;
41623;SDS011;27319;50.306;18.926;2022-10-16T17:32:08;36.78;;;22.10;;
41623;SDS011;27319;50.306;18.926;2022-10-16T17:36:04;27.17;;;18.80;;
41623;SDS011;27319;50.306;18.926;2022-10-16T17:39:06;29.48;;;18.58;;
41623;SDS011;27319;50.306;18.926;2022-10-16T17:43:06;27.67;;;18.13;;
41623;SDS011;27319;50.306;18.926;2022-10-16T17:47:07;29.55;;;18.27;;
41623;SDS011;27319;50.306;18.926;2022-10-16T17:51:08;32.60;;;19.55;;
41623;SDS011;27319;50.306;18.926;2022-10-16T17:55:08;31.45;;;18.95;;
41623;SDS011;27319;50.306;18.926;2022-10-16T17:59:09;27.85;;;19.38;;
41623;SDS011;27319;50.306;18.926;2022-10-16T18:03:09;34.72;;;22.05;;
41623;SDS011;27319;50.306;18.926;2022-10-16T18:07:10;48.28;;;29.27;;
41623;SDS011;27319;50.306;18.926;2022-10-16T18:11:11;50.13;;;28.73;;
41623;SDS011;27319;50.306;18.926;2022-10-16T18:15:11;39.38;;;24.25;;
41623;SDS011;27319;50.306;18.926;2022-10-16T18:18:12;38.88;;;24.33;;
41623;SDS011;27319;50.306;18.926;2022-10-16T18:22:13;35.80;;;23.30;;
41623;SDS011;27319;50.306;18.926;2022-10-16T18:26:14;36.80;;;23.30;;
41623;SDS011;27319;50.306;18.926;2022-10-16T18:30:17;35.13;;;21.67;;
41623;SDS011;27319;50.306;18.926;2022-10-16T18:34:18;35.83;;;22.30;;
41623;SDS011;27319;50.306;18.926;2022-10-16T18:37:19;32.72;;;21.77;;
41623;SDS011;27319;50.306;18.926;2022-10-16T18:41:20;35.63;;;22.33;;
41623;SDS011;27319;50.306;18.926;2022-10-16T18:45:20;32.60;;;21.40;;
41623;SDS011;27319;50.306;18.926;2022-10-16T18:49:22;39.00;;;22.13;;
41623;SDS011;27319;50.306;18.926;2022-10-16T18:53:22;33.40;;;21.90;;
41623;SDS011;27319;50.306;18.926;2022-10-16T18:57:22;38.28;;;23.05;;
41623;SDS011;27319;50.306;18.926;2022-10-16T19:01:20;34.65;;;23.05;;
41623;SDS011;27319;50.306;18.926;2022-10-16T19:05:19;35.20;;;23.08;;
41623;SDS011;27319;50.306;18.926;2022-10-16T19:09:21;36.25;;;20.15;;
41623;SDS011;27319;50.306;18.926;2022-10-16T19:13:20;31.17;;;20.23;;
41623;SDS011;27319;50.306;18.926;2022-10-16T19:17:21;36.28;;;21.63;;
41623;SDS011;27319;50.306;18.926;2022-10-16T19:21:22;41.55;;;25.70;;
41623;SDS011;27319;50.306;18.926;2022-10-16T19:24:24;55.35;;;30.98;;
41623;SDS011;27319;50.306;18.926;2022-10-16T19:28:24;45.03;;;27.42;;
41623;SDS011;27319;50.306;18.926;2022-10-16T19:32:25;37.30;;;23.98;;
41623;SDS011;27319;50.306;18.926;2022-10-16T19:35:34;31.45;;;22.20;;
41623;SDS011;27319;50.306;18.926;2022-10-16T19:39:34;34.33;;;23.00;;
41623;SDS011;27319;50.306;18.926;2022-10-16T19:43:35;35.83;;;22.42;;
41623;SDS011;27319;50.306;18.926;2022-10-16T19:47:36;33.00;;;21.90;;
41623;SDS011;27319;50.306;18.926;2022-10-16T19:51:37;35.25;;;21.08;;
41623;SDS011;27319;50.306;18.926;2022-10-16T19:55:37;32.47;;;20.38;;
41623;SDS011;27319;50.306;18.926;2022-10-16T19:59:38;30.63;;;20.42;;
41623;SDS011;27319;50.306;18.926;2022-10-16T20:03:38;34.08;;;19.35;;
41623;SDS011;27319;50.306;18.926;2022-10-16T20:07:39;32.95;;;19.67;;
41623;SDS011;27319;50.306;18.926;2022-10-16T20:11:39;37.30;;;19.95;;
41623;SDS011;27319;50.306;18.926;2022-10-16T20:15:40;33.03;;;20.27;;
41623;SDS011;27319;50.306;18.926;2022-10-16T20:19:41;33.78;;;20.35;;
41623;SDS011;27319;50.306;18.926;2022-10-16T20:23:41;27.80;;;19.15;;
41623;SDS011;27319;50.306;18.926;2022-10-16T20:26:44;33.88;;;19.83;;
41623;SDS011;27319;50.306;18.926;2022-10-16T20:30:45;28.30;;;19.65;;
41623;SDS011;27319;50.306;18.926;2022-10-16T20:33:51;37.97;;;21.10;;
41623;SDS011;27319;50.306;18.926;2022-10-16T20:36:54;34.00;;;20.20;;
41623;SDS011;27319;50.306;18.926;2022-10-16T20:39:55;38.50;;;20.67;;
41623;SDS011;27319;50.306;18.926;2022-10-16T20:42:56;31.13;;;20.23;;
41623;SDS011;27319;50.306;18.926;2022-10-16T20:46:00;34.85;;;21.75;;
41623;SDS011;27319;50.306;18.926;2022-10-16T20:49:03;34.05;;;20.75;;
41623;SDS011;27319;50.306;18.926;2022-10-16T20:53:03;35.65;;;20.42;;
41623;SDS011;27319;50.306;18.926;2022-10-16T20:57:04;41.50;;;23.35;;
41623;SDS011;27319;50.306;18.926;2022-10-16T21:01:05;37.97;;;24.15;;
41623;SDS011;27319;50.306;18.926;2022-10-16T21:05:05;35.65;;;21.90;;
41623;SDS011;27319;50.306;18.926;2022-10-16T21:09:06;33.38;;;22.30;;
41623;SDS011;27319;50.306;18.926;2022-10-16T21:13:07;28.92;;;20.00;;
41623;SDS011;27319;50.306;18.926;2022-10-16T21:17:07;27.52;;;19.25;;
41623;SDS011;27319;50.306;18.926;2022-10-16T21:21:08;35.50;;;19.52;;
41623;SDS011;27319;50.306;18.926;2022-10-16T21:24:25;25.67;;;17.85;;
41623;SDS011;27319;50.306;18.926;2022-10-16T21:27:26;25.55;;;17.90;;
41623;SDS011;27319;50.306;18.926;2022-10-16T21:30:27;28.80;;;18.27;;
41623;SDS011;27319;50.306;18.926;2022-10-16T21:33:28;28.25;;;19.17;;
41623;SDS011;27319;50.306;18.926;2022-10-16T21:36:30;26.90;;;16.65;;
41623;SDS011;27319;50.306;18.926;2022-10-16T21:40:30;24.65;;;16.70;;
41623;SDS011;27319;50.306;18.926;2022-10-16T21:44:30;24.88;;;16.40;;
41623;SDS011;27319;50.306;18.926;2022-10-16T21:48:31;25.15;;;18.55;;
41623;SDS011;27319;50.306;18.926;2022-10-16T21:52:31;29.45;;;18.42;;
41623;SDS011;27319;50.306;18.926;2022-10-16T21:56:32;27.48;;;19.23;;
41623;SDS011;27319;50.306;18.926;2022-10-16T22:00:32;35.20;;;19.17;;
41623;SDS011;27319;50.306;18.926;2022-10-16T22:04:33;26.95;;;18.45;;
41623;SDS011;27319;50.306;18.926;2022-10-16T22:08:34;33.13;;;19.50;;
41623;SDS011;27319;50.306;18.926;2022-10-16T22:12:34;27.15;;;18.88;;
41623;SDS011;27319;50.306;18.926;2022-10-16T22:16:35;28.20;;;18.40;;
41623;SDS011;27319;50.306;18.926;2022-10-16T22:20:35;34.20;;;19.52;;
41623;SDS011;27319;50.306;18.926;2022-10-16T22:23:36;32.03;;;19.52;;
41623;SDS011;27319;50.306;18.926;2022-10-16T22:26:37;31.42;;;19.80;;
41623;SDS011;27319;50.306;18.926;2022-10-16T22:29:38;32.20;;;18.73;;
41623;SDS011;27319;50.306;18.926;2022-10-16T22:32:40;31.20;;;21.17;;
41623;SDS011;27319;50.306;18.926;2022-10-16T22:35:40;27.02;;;18.45;;
41623;SDS011;27319;50.306;18.926;2022-10-16T22:38:41;32.17;;;21.40;;
41623;SDS011;27319;50.306;18.926;2022-10-16T22:42:42;32.53;;;21.80;;
41623;SDS011;27319;50.306;18.926;2022-10-16T22:46:43;32.53;;;21.80;;
41623;SDS011;27319;50.306;18.926;2022-10-16T22:50:43;38.05;;;23.50;;
41623;SDS011;27319;50.306;18.926;2022-10-16T22:54:44;34.35;;;22.95;;
41623;SDS011;27319;50.306;18.926;2022-10-16T22:58:45;39.63;;;22.15;;
41623;SDS011;27319;50.306;18.926;2022-10-16T23:02:45;35.90;;;22.08;;
41623;SDS011;27319;50.306;18.926;2022-10-16T23:06:46;34.45;;;22.40;;
41623;SDS011;27319;50.306;18.926;2022-10-16T23:10:47;32.42;;;21.02;;
41623;SDS011;27319;50.306;18.926;2022-10-16T23:14:47;32.63;;;19.90;;
41623;SDS011;27319;50.306;18.926;2022-10-16T23:18:48;30.65;;;20.67;;
41623;SDS011;27319;50.306;18.926;2022-10-16T23:22:48;30.42;;;19.38;;
41623;SDS011;27319;50.306;18.926;2022-10-16T23:25:49;29.70;;;20.40;;
41623;SDS011;27319;50.306;18.926;2022-10-16T23:28:50;26.58;;;20.15;;
41623;SDS011;27319;50.306;18.926;2022-10-16T23:31:54;32.65;;;22.17;;
41623;SDS011;27319;50.306;18.926;2022-10-16T23:34:55;32.33;;;23.40;;
41623;SDS011;27319;50.306;18.926;2022-10-16T23:37:56;37.35;;;26.38;;
41623;SDS011;27319;50.306;18.926;2022-10-16T23:40:57;40.95;;;27.52;;
41623;SDS011;27319;50.306;18.926;2022-10-16T23:43:58;48.15;;;30.17;;